Bari / Palese International Airport LIBD

Flugplatz Daten

Name: Bari / Palese International Airport

Ident: LIBD

Lat: 41,13890076

Long: 16,76059914

Platzhöhe: 177 ft

IataCode: BRI

City: Bari

Homepage: http://www.seap-puglia.it/default.asp?idlingua=2&idcontenuto=25

Metar

2021/12/04 00:20
LIBD 040020Z 33010KT 300V020 9999 SCT035 12/03 Q1009

Taf

2021/12/03 00:00
TAF LIBD 032300Z 0400/0424 30012KT 9999 SCT030
TEMPO 0400/0412 34018G28KT
Gewünschte Webcam nicht vorhanden? Dann fügen Sie eine hinzu. Sie wird dann so schnell wie möglich freigeschaltet
Url: Title: